Terminal Aerodrome Forecast
Issued by NWS

Home | Current Version | Previous Version | Text Only | Print | Product List | Glossary On
Versions: 1 2 3 4 5 6 7 8 9 10 11 12 13 14 15 16 17 18 19 20 21 22 23 24 25 26 27 28 29 30
000
FTUS45 KGJT 231201 RRA
TAFRIL
TAF
KRIL 231201Z 2312/2412 28010KT P6SM -RA SCT050 OVC060
     FM231500 31004KT P6SM VCSH SCT060 OVC090
      TEMPO 2315/2319 VRB10KT P6SM -SHRA BKN050
     FM231900 26010G20KT P6SM VCTS SCT070CB BKN100
     FM240000 28012G20KT P6SM BKN150
     FM240300 14003KT P6SM BKN150=

USA.gov is the U.S. government's official web portal to all federal, state and local government web resources and services.